createdAt,value
2017-10-23T00:01:43.720Z,96.70
2017-10-23T00:04:14.889Z,96.80
2017-10-23T00:06:45.466Z,96.80
2017-10-23T00:09:15.928Z,96.90
2017-10-23T00:11:46.405Z,96.90
2017-10-23T00:14:16.774Z,97.00
2017-10-23T00:16:48.034Z,97.20
2017-10-23T00:19:18.689Z,96.90
2017-10-23T00:21:49.133Z,96.90
2017-10-23T00:24:19.548Z,96.80
2017-10-23T00:26:50.002Z,96.70
2017-10-23T00:29:20.707Z,96.60
2017-10-23T00:31:51.880Z,96.40
2017-10-23T00:34:22.408Z,96.20
2017-10-23T00:36:53.134Z,95.80
2017-10-23T00:39:23.570Z,95.50
2017-10-23T00:41:54.046Z,95.30
2017-10-23T00:44:24.481Z,95.20
2017-10-23T00:46:54.939Z,94.90
2017-10-23T00:49:25.736Z,94.40
2017-10-23T00:51:56.227Z,94.30
2017-10-23T00:54:26.718Z,93.90
2017-10-23T00:56:57.309Z,93.90
2017-10-23T00:59:28.529Z,93.40
2017-10-23T01:01:59.239Z,93.40
2017-10-23T01:04:29.737Z,93.00
2017-10-23T01:07:00.638Z,93.00
2017-10-23T01:09:31.969Z,92.90
2017-10-23T01:12:02.560Z,92.90
2017-10-23T01:14:33.104Z,93.10
2017-10-23T01:17:03.562Z,93.40
2017-10-23T01:19:34.422Z,93.30
2017-10-23T01:22:05.685Z,93.30
2017-10-23T01:24:36.080Z,93.30
2017-10-23T01:27:07.317Z,93.00
2017-10-23T01:29:37.749Z,93.00
2017-10-23T01:32:08.724Z,93.20
2017-10-23T01:34:39.117Z,92.80
2017-10-23T01:37:10.566Z,93.00
2017-10-23T01:39:41.813Z,92.90
2017-10-23T01:42:13.054Z,92.90
2017-10-23T01:44:44.252Z,92.90
2017-10-23T01:47:14.731Z,92.90
2017-10-23T01:49:45.501Z,93.00
2017-10-23T01:52:16.067Z,92.60
2017-10-23T01:54:46.592Z,92.60
2017-10-23T01:57:17.045Z,92.70
2017-10-23T01:59:47.502Z,92.70
2017-10-23T02:02:18.423Z,92.70
2017-10-23T02:04:49.702Z,92.90
2017-10-23T02:07:20.608Z,92.60
2017-10-23T02:09:51.817Z,92.20
2017-10-23T02:12:22.262Z,92.20
2017-10-23T02:14:52.735Z,92.10
2017-10-23T02:17:23.196Z,91.60
2017-10-23T02:19:54.105Z,91.40
2017-10-23T02:22:24.550Z,91.50
2017-10-23T02:24:55.194Z,91.30
2017-10-23T02:27:25.631Z,91.50
2017-10-23T02:29:56.055Z,91.70
2017-10-23T02:32:26.536Z,91.60
2017-10-23T02:34:56.949Z,91.30
2017-10-23T02:37:28.684Z,91.30
2017-10-23T02:39:59.890Z,91.40
2017-10-23T02:42:30.332Z,91.40
2017-10-23T02:45:00.822Z,90.80
2017-10-23T02:47:31.289Z,90.90
2017-10-23T02:50:02.065Z,90.80
2017-10-23T02:52:33.261Z,90.30
2017-10-23T02:55:04.930Z,89.90
2017-10-23T02:57:35.387Z,89.80
2017-10-23T03:00:06.587Z,89.00
2017-10-23T03:02:37.032Z,88.90
2017-10-23T03:05:07.516Z,89.50
2017-10-23T03:07:38.537Z,89.90
2017-10-23T03:10:09.784Z,90.00
2017-10-23T03:12:41.045Z,90.00
2017-10-23T03:15:11.485Z,90.00
2017-10-23T03:17:41.917Z,89.70
2017-10-23T03:20:12.839Z,88.90
2017-10-23T03:22:43.498Z,89.60
2017-10-23T03:25:14.215Z,90.10
2017-10-23T03:27:44.732Z,90.10
2017-10-23T03:30:16.081Z,90.20
2017-10-23T03:32:46.509Z,89.70
2017-10-23T03:35:16.930Z,89.10
2017-10-23T03:37:47.620Z,88.70
2017-10-23T03:40:18.072Z,87.40
2017-10-23T03:42:49.262Z,86.80
2017-10-23T03:45:19.679Z,86.80
2017-10-23T03:47:50.129Z,87.50
2017-10-23T03:50:20.892Z,87.60
2017-10-23T03:52:52.097Z,88.10
2017-10-23T03:55:22.647Z,88.10
2017-10-23T03:57:53.124Z,88.20
2017-10-23T04:00:23.551Z,88.50
2017-10-23T04:02:54.015Z,88.20
2017-10-23T04:05:24.471Z,88.10
2017-10-23T04:07:55.928Z,88.50
2017-10-23T04:10:27.117Z,88.90
2017-10-23T04:12:57.857Z,88.80
2017-10-23T04:15:28.291Z,88.40
2017-10-23T04:17:58.797Z,89.00
2017-10-23T04:20:29.507Z,89.50
2017-10-23T04:23:00.257Z,89.50
2017-10-23T04:25:31.111Z,87.60
2017-10-23T04:28:01.600Z,87.00
2017-10-23T04:30:32.761Z,87.00
2017-10-23T04:33:03.173Z,86.90
2017-10-23T04:35:34.375Z,85.80
2017-10-23T04:38:05.087Z,85.70
2017-10-23T04:40:35.523Z,84.30
2017-10-23T04:43:05.981Z,84.90
2017-10-23T04:45:36.389Z,86.10
2017-10-23T04:48:06.912Z,86.10
2017-10-23T04:50:37.355Z,84.90
2017-10-23T04:53:07.777Z,84.30
2017-10-23T04:55:38.750Z,84.80
2017-10-23T04:58:09.995Z,84.60
2017-10-23T05:00:41.259Z,85.80
2017-10-23T05:03:11.779Z,85.70
2017-10-23T05:05:42.166Z,84.50
2017-10-23T05:08:12.989Z,84.80
2017-10-23T05:10:43.439Z,84.90
2017-10-23T05:13:14.364Z,87.00
2017-10-23T05:15:44.812Z,86.00
2017-10-23T05:18:16.288Z,85.20
2017-10-23T05:20:46.721Z,85.20
2017-10-23T05:23:17.178Z,85.30
2017-10-23T05:25:48.724Z,85.80
2017-10-23T05:28:19.273Z,85.70
2017-10-23T05:30:49.728Z,86.10
2017-10-23T05:33:20.987Z,86.70
2017-10-23T05:35:52.264Z,86.30
2017-10-23T05:38:23.124Z,86.20
2017-10-23T05:40:53.540Z,86.70
2017-10-23T05:43:24.378Z,87.60
2017-10-23T05:45:54.832Z,86.80
2017-10-23T05:48:25.344Z,86.70
2017-10-23T05:50:55.855Z,86.30
2017-10-23T05:53:26.411Z,86.60
2017-10-23T05:55:57.310Z,86.00
2017-10-23T05:58:27.828Z,85.30
2017-10-23T06:00:58.242Z,85.40
2017-10-23T06:03:29.470Z,84.20
2017-10-23T06:05:59.900Z,84.20
2017-10-23T06:08:31.142Z,83.30
2017-10-23T06:11:02.381Z,83.20
2017-10-23T06:13:33.228Z,83.10
2017-10-23T06:16:04.562Z,82.80
2017-10-23T06:18:35.037Z,82.80
2017-10-23T06:21:05.788Z,83.20
2017-10-23T06:23:36.525Z,81.90
2017-10-23T06:26:07.244Z,82.70
2017-10-23T06:28:37.759Z,81.60
2017-10-23T06:31:08.513Z,82.50
2017-10-23T06:33:38.992Z,82.20
2017-10-23T06:36:10.220Z,81.90
2017-10-23T06:38:41.043Z,81.80
2017-10-23T06:41:11.537Z,81.10
2017-10-23T06:43:42.029Z,81.20
2017-10-23T06:46:13.225Z,81.50
2017-10-23T06:48:43.678Z,81.50
2017-10-23T06:51:14.109Z,81.00
2017-10-23T06:53:45.333Z,80.20
2017-10-23T06:56:16.064Z,80.10
2017-10-23T06:58:46.760Z,80.70
2017-10-23T07:01:17.274Z,81.30
2017-10-23T07:03:48.506Z,81.80
2017-10-23T07:06:18.991Z,81.80
2017-10-23T07:08:49.431Z,82.40
2017-10-23T07:11:19.829Z,82.60
2017-10-23T07:13:50.713Z,82.50
2017-10-23T07:16:21.201Z,82.30
2017-10-23T07:18:51.691Z,82.40
2017-10-23T07:21:22.890Z,84.00
2017-10-23T07:23:53.333Z,84.00
2017-10-23T07:26:24.145Z,83.70
2017-10-23T07:28:54.572Z,82.90
2017-10-23T07:31:25.303Z,83.60
2017-10-23T07:33:55.795Z,82.60
2017-10-23T07:36:26.281Z,82.90
2017-10-23T07:38:56.766Z,83.20
2017-10-23T07:41:27.234Z,82.00
2017-10-23T07:43:58.104Z,82.50
2017-10-23T07:46:29.324Z,81.60
2017-10-23T07:48:59.763Z,81.50
2017-10-23T07:51:30.200Z,79.00
2017-10-23T07:54:01.483Z,81.30
2017-10-23T07:56:32.274Z,81.30
2017-10-23T07:59:02.748Z,81.00
2017-10-23T08:01:33.649Z,79.90
2017-10-23T08:04:04.867Z,80.00
2017-10-23T08:06:35.410Z,80.00
2017-10-23T08:09:06.072Z,78.20
2017-10-23T08:11:37.273Z,77.30
2017-10-23T08:14:08.113Z,77.30
2017-10-23T08:16:38.593Z,75.80
2017-10-23T08:19:09.140Z,75.40
2017-10-23T08:21:39.611Z,75.30
2017-10-23T08:24:10.057Z,74.20
2017-10-23T08:26:41.677Z,75.50
2017-10-23T08:29:12.157Z,75.50
2017-10-23T08:31:43.007Z,75.60
2017-10-23T08:34:13.496Z,70.80
2017-10-23T08:36:44.701Z,74.00
2017-10-23T08:39:15.161Z,73.90
2017-10-23T08:41:46.346Z,73.50
2017-10-23T08:44:17.201Z,73.50
2017-10-23T08:46:47.599Z,73.90
2017-10-23T08:49:18.003Z,73.30
2017-10-23T08:51:49.245Z,72.80
2017-10-23T08:54:20.397Z,73.20
2017-10-23T08:56:52.222Z,73.70
2017-10-23T08:59:22.895Z,73.70
2017-10-23T09:01:54.432Z,73.70
2017-10-23T09:04:25.967Z,73.60
2017-10-23T09:06:56.592Z,73.60
2017-10-23T09:09:27.237Z,72.90
2017-10-23T09:11:57.693Z,74.70
2017-10-23T09:14:29.415Z,72.90
2017-10-23T09:16:59.785Z,72.90
2017-10-23T09:19:30.399Z,72.90
2017-10-23T09:22:01.654Z,72.10
2017-10-23T09:24:32.770Z,72.40
2017-10-23T09:27:03.581Z,72.40
2017-10-23T09:29:34.004Z,73.40
2017-10-23T09:32:04.858Z,73.20
2017-10-23T09:34:35.348Z,70.60
2017-10-23T09:37:05.913Z,72.60
2017-10-23T09:39:36.390Z,72.40
2017-10-23T09:42:06.792Z,73.00
2017-10-23T09:44:38.380Z,73.60
2017-10-23T09:47:08.809Z,72.80
2017-10-23T09:49:39.249Z,74.40
2017-10-23T09:52:09.733Z,75.40
2017-10-23T09:54:40.933Z,77.00
2017-10-23T09:57:11.468Z,77.00
2017-10-23T09:59:41.866Z,77.70
2017-10-23T10:02:12.757Z,76.80
2017-10-23T10:04:44.521Z,76.60
2017-10-23T10:07:15.702Z,74.60
2017-10-23T10:09:46.197Z,74.50
2017-10-23T10:12:17.402Z,75.50
2017-10-23T10:14:48.115Z,75.50
2017-10-23T10:17:18.581Z,75.60
2017-10-23T10:19:48.988Z,76.30
2017-10-23T10:22:19.345Z,76.00
2017-10-23T10:24:50.632Z,78.20
2017-10-23T10:27:21.098Z,78.20
2017-10-23T10:29:51.546Z,80.00
2017-10-23T10:32:22.461Z,80.30
2017-10-23T10:34:52.885Z,81.30
2017-10-23T10:37:23.429Z,80.90
2017-10-23T10:39:53.941Z,80.80
2017-10-23T10:42:29.363Z,81.10
2017-10-23T10:45:00.298Z,81.10
2017-10-23T10:47:30.712Z,81.20
2017-10-23T10:50:01.399Z,81.70
2017-10-23T10:52:31.829Z,82.20
2017-10-23T10:55:03.040Z,82.80
2017-10-23T10:57:34.212Z,82.70
2017-10-23T11:00:04.676Z,82.90
2017-10-23T11:02:36.237Z,83.10
2017-10-23T11:05:06.749Z,83.10
2017-10-23T11:07:37.973Z,83.00
2017-10-23T11:10:08.395Z,83.00
2017-10-23T11:12:38.797Z,82.90
2017-10-23T11:15:09.336Z,82.80
2017-10-23T11:17:39.802Z,82.40
2017-10-23T11:20:11.397Z,82.10
2017-10-23T11:22:42.038Z,82.10
2017-10-23T11:25:12.533Z,82.20
2017-10-23T11:27:42.981Z,82.10
2017-10-23T11:30:13.473Z,81.40
2017-10-23T11:32:45.190Z,82.00
2017-10-23T11:35:15.722Z,82.00
2017-10-23T11:37:46.219Z,82.40
2017-10-23T11:40:16.698Z,83.60
2017-10-23T11:42:47.822Z,84.30
2017-10-23T11:45:19.443Z,84.20
2017-10-23T11:47:49.875Z,84.50
2017-10-23T11:50:20.574Z,84.70
2017-10-23T11:52:51.746Z,85.70
2017-10-23T11:55:22.205Z,85.70
2017-10-23T11:57:52.603Z,86.20
2017-10-23T12:00:23.064Z,86.50
2017-10-23T12:02:53.833Z,86.20
2017-10-23T12:05:24.412Z,85.90
2017-10-23T12:07:54.865Z,85.90
2017-10-23T12:10:25.351Z,85.60
2017-10-23T12:12:55.820Z,86.00
2017-10-23T12:15:26.765Z,86.50
2017-10-23T12:17:57.232Z,87.30
2017-10-23T12:20:28.103Z,86.60
2017-10-23T12:22:58.435Z,86.20
2017-10-23T12:25:28.943Z,85.60
2017-10-23T12:28:00.538Z,85.80
2017-10-23T12:30:31.787Z,86.10
2017-10-23T12:33:04.261Z,86.20
2017-10-23T12:35:35.531Z,86.70
2017-10-23T12:38:06.989Z,86.70
2017-10-23T12:40:38.409Z,86.90
2017-10-23T12:43:09.580Z,86.60
2017-10-23T12:45:39.928Z,86.50
2017-10-23T12:48:10.365Z,86.60
2017-10-23T12:50:41.349Z,86.50
2017-10-23T12:53:12.545Z,86.80
2017-10-23T12:55:42.954Z,86.70
2017-10-23T12:58:13.425Z,87.30
2017-10-23T13:00:43.897Z,88.60
2017-10-23T13:03:14.574Z,88.40
2017-10-23T13:05:44.998Z,87.90
2017-10-23T13:08:15.827Z,87.90
2017-10-23T13:10:46.269Z,88.50
2017-10-23T13:13:16.697Z,88.30
2017-10-23T13:15:47.070Z,88.40
2017-10-23T13:18:17.474Z,88.60
2017-10-23T13:20:49.134Z,87.80
2017-10-23T13:23:19.625Z,87.70
2017-10-23T13:25:50.124Z,87.90
2017-10-23T13:28:20.566Z,88.20
2017-10-23T13:30:51.759Z,88.50
2017-10-23T13:33:23.355Z,88.80
2017-10-23T13:35:53.839Z,88.80
2017-10-23T13:38:25.566Z,89.20
2017-10-23T13:40:56.029Z,89.20
2017-10-23T13:43:27.244Z,88.40
2017-10-23T13:45:57.686Z,88.40
2017-10-23T13:48:28.892Z,89.30
2017-10-23T13:50:59.874Z,89.30
2017-10-23T13:53:31.253Z,89.00
2017-10-23T13:56:01.829Z,89.00
2017-10-23T13:58:32.189Z,88.90
2017-10-23T14:01:03.432Z,88.70
2017-10-23T14:03:34.903Z,88.70
2017-10-23T14:06:05.398Z,88.70
2017-10-23T14:08:36.100Z,88.70
2017-10-23T14:11:06.554Z,88.50
2017-10-23T14:13:37.044Z,88.90
2017-10-23T14:16:07.544Z,89.20
2017-10-23T14:18:37.971Z,89.30
2017-10-23T14:21:09.579Z,89.20
2017-10-23T14:23:40.027Z,89.30
2017-10-23T14:26:11.333Z,89.70
2017-10-23T14:28:41.843Z,89.60
2017-10-23T14:31:12.879Z,89.80
2017-10-23T14:33:43.738Z,90.00
2017-10-23T14:36:14.235Z,90.00
2017-10-23T14:38:44.987Z,89.90
2017-10-23T14:41:15.685Z,90.00
2017-10-23T14:43:47.249Z,90.10
2017-10-23T14:46:17.996Z,90.10
2017-10-23T14:48:48.713Z,90.30
2017-10-23T14:51:19.776Z,90.50
2017-10-23T14:53:50.410Z,90.40
2017-10-23T14:56:21.434Z,90.30
2017-10-23T14:58:51.922Z,90.40
2017-10-23T15:01:22.438Z,90.30
2017-10-23T15:03:52.902Z,90.40
2017-10-23T15:06:24.147Z,90.50
2017-10-23T15:08:55.766Z,90.60
2017-10-23T15:11:26.218Z,90.60
2017-10-23T15:13:57.389Z,90.40
2017-10-23T15:16:28.050Z,90.40
2017-10-23T15:18:58.525Z,90.30
2017-10-23T15:21:31.421Z,90.20
2017-10-23T15:24:02.716Z,90.10
2017-10-23T15:26:33.215Z,90.10
2017-10-23T15:29:03.685Z,90.00
2017-10-23T15:31:34.869Z,90.20
2017-10-23T15:34:07.177Z,90.30
2017-10-23T15:36:38.699Z,90.30
2017-10-23T15:39:09.560Z,90.40
2017-10-23T15:41:39.979Z,90.40
2017-10-23T15:44:10.456Z,90.50
2017-10-23T15:46:40.955Z,90.90
2017-10-23T15:49:11.580Z,91.30
2017-10-23T15:51:42.758Z,91.40
2017-10-23T15:54:13.250Z,91.50
2017-10-23T15:56:43.918Z,91.70
2017-10-23T15:59:14.315Z,91.90
2017-10-23T16:01:44.842Z,92.00
2017-10-23T16:04:15.321Z,92.10
2017-10-23T16:06:46.471Z,92.30
2017-10-23T16:09:18.080Z,92.50
2017-10-23T16:11:48.530Z,92.50
2017-10-23T16:14:18.885Z,92.60
2017-10-23T16:16:50.122Z,92.60
2017-10-23T16:19:21.363Z,92.70
2017-10-23T16:21:52.922Z,92.80
2017-10-23T16:24:24.158Z,92.80
2017-10-23T16:26:55.761Z,92.90
2017-10-23T16:29:26.065Z,92.90
2017-10-23T16:31:56.469Z,92.90
2017-10-23T16:34:27.643Z,93.00
2017-10-23T16:36:58.033Z,93.00
2017-10-23T16:39:29.691Z,93.10
2017-10-23T16:42:00.960Z,93.10
2017-10-23T16:44:31.468Z,93.10
2017-10-23T16:47:02.714Z,93.10
2017-10-23T16:49:33.939Z,93.20
2017-10-23T16:52:04.757Z,93.20
2017-10-23T16:54:35.201Z,93.40
2017-10-23T16:57:06.044Z,93.30
2017-10-23T16:59:37.250Z,93.50
2017-10-23T17:02:07.618Z,93.50
2017-10-23T17:04:38.825Z,93.40
2017-10-23T17:07:09.276Z,93.40
2017-10-23T17:09:40.161Z,93.40
2017-10-23T17:12:16.740Z,93.60
2017-10-23T17:14:47.185Z,93.70
2017-10-23T17:17:17.691Z,93.80
2017-10-23T17:19:48.087Z,93.80
2017-10-23T17:22:20.002Z,93.60
2017-10-23T17:24:50.514Z,93.60
2017-10-23T17:27:21.173Z,93.60
2017-10-23T17:29:51.629Z,93.70
2017-10-23T17:32:22.887Z,93.50
2017-10-23T17:34:54.081Z,93.50
2017-10-23T17:37:24.543Z,93.50
2017-10-23T17:39:56.292Z,93.70
2017-10-23T17:42:26.853Z,93.70
2017-10-23T17:44:57.304Z,93.60
2017-10-23T17:47:27.803Z,93.70
2017-10-23T17:49:59.012Z,93.80
2017-10-23T17:52:29.749Z,93.80
2017-10-23T17:55:00.156Z,93.90
2017-10-23T17:57:31.114Z,93.90
2017-10-23T18:00:01.640Z,93.70
2017-10-23T18:02:32.826Z,93.80
2017-10-23T18:05:04.169Z,93.80
2017-10-23T18:07:34.648Z,94.00
2017-10-23T18:10:05.465Z,94.00
2017-10-23T18:12:35.961Z,94.10
2017-10-23T18:15:07.145Z,94.00
2017-10-23T18:17:37.548Z,94.00
2017-10-23T18:20:07.971Z,94.10
2017-10-23T18:22:40.097Z,94.20
2017-10-23T18:25:10.468Z,94.50
2017-10-23T18:27:41.391Z,94.80
2017-10-23T18:30:11.870Z,94.40
2017-10-23T18:32:42.338Z,94.40
2017-10-23T18:35:13.504Z,94.40
2017-10-23T18:37:43.959Z,94.40
2017-10-23T18:40:15.794Z,94.30
2017-10-23T18:42:46.240Z,94.40
2017-10-23T18:45:16.743Z,94.50
2017-10-23T18:47:47.191Z,94.50
2017-10-23T18:50:17.639Z,94.50
2017-10-23T18:52:48.704Z,94.60
2017-10-23T18:55:19.224Z,94.70
2017-10-23T18:57:50.177Z,94.80
2017-10-23T19:00:22.243Z,94.80
2017-10-23T19:02:53.700Z,94.80
2017-10-23T19:05:30.323Z,94.80
2017-10-23T19:08:00.779Z,94.80
2017-10-23T19:10:32.347Z,94.90
2017-10-23T19:13:03.649Z,94.90
2017-10-23T19:15:34.129Z,94.80
2017-10-23T19:18:05.438Z,95.00
2017-10-23T19:20:35.905Z,95.00
2017-10-23T19:23:07.227Z,95.20
2017-10-23T19:25:37.705Z,95.20
2017-10-23T19:28:08.362Z,95.20
2017-10-23T19:30:38.807Z,95.30
2017-10-23T19:33:09.299Z,95.40
2017-10-23T19:35:39.768Z,95.60
2017-10-23T19:38:10.129Z,95.60
2017-10-23T19:40:41.016Z,95.70
2017-10-23T19:43:11.477Z,95.70
2017-10-23T19:45:42.903Z,95.80
2017-10-23T19:48:13.908Z,95.80
2017-10-23T19:50:44.346Z,95.80
2017-10-23T19:53:14.817Z,95.80
2017-10-23T19:55:46.051Z,95.90
2017-10-23T19:58:16.843Z,95.90
2017-10-23T20:00:47.328Z,96.00
2017-10-23T20:03:18.484Z,96.10
2017-10-23T20:05:49.703Z,96.10
2017-10-23T20:08:20.092Z,96.10
2017-10-23T20:10:50.965Z,96.20
2017-10-23T20:13:21.451Z,96.20
2017-10-23T20:15:53.788Z,96.30
2017-10-23T20:18:25.023Z,96.50
2017-10-23T20:20:56.304Z,96.60
2017-10-23T20:23:26.886Z,96.50
2017-10-23T20:25:57.337Z,96.60
2017-10-23T20:28:28.969Z,96.60
2017-10-23T20:30:59.388Z,96.60
2017-10-23T20:33:29.861Z,96.60
2017-10-23T20:36:00.296Z,96.70
2017-10-23T20:38:30.700Z,96.70
2017-10-23T20:41:01.937Z,96.90
2017-10-23T20:43:33.094Z,96.90
2017-10-23T20:46:04.691Z,96.90
2017-10-23T20:48:35.144Z,96.80
2017-10-23T20:51:06.347Z,96.80
2017-10-23T20:53:36.756Z,96.80
2017-10-23T20:56:07.185Z,96.80
2017-10-23T20:58:37.620Z,96.90
2017-10-23T21:01:08.074Z,97.10
2017-10-23T21:03:38.538Z,97.10
2017-10-23T21:06:09.783Z,97.30
2017-10-23T21:08:40.946Z,97.40
2017-10-23T21:11:11.708Z,97.40
2017-10-23T21:13:42.233Z,97.40
2017-10-23T21:16:13.065Z,97.50
2017-10-23T21:18:43.517Z,97.60
2017-10-23T21:21:14.012Z,97.70
2017-10-23T21:23:44.484Z,97.90
2017-10-23T21:26:14.912Z,98.00
2017-10-23T21:28:45.774Z,98.00
2017-10-23T21:31:17.457Z,98.00
2017-10-23T21:33:47.923Z,98.00
2017-10-23T21:36:18.304Z,98.10
2017-10-23T21:38:48.792Z,98.10
2017-10-23T21:41:19.249Z,98.20
2017-10-23T21:43:50.501Z,98.30
2017-10-23T21:46:31.749Z,98.30
2017-10-23T21:49:02.232Z,98.50
2017-10-23T21:51:32.698Z,98.50
2017-10-23T21:54:03.157Z,98.50
2017-10-23T21:56:34.423Z,98.50
2017-10-23T21:59:06.065Z,98.50
2017-10-23T22:01:36.817Z,98.50
2017-10-23T22:04:07.255Z,98.60
2017-10-23T22:06:37.688Z,98.50
2017-10-23T22:09:08.147Z,98.60
2017-10-23T22:11:39.044Z,98.60
2017-10-23T22:14:10.522Z,98.50
2017-10-23T22:16:41.258Z,98.50
2017-10-23T22:19:11.719Z,98.50
2017-10-23T22:21:42.997Z,98.60
2017-10-23T22:24:13.396Z,98.60
2017-10-23T22:26:44.648Z,98.40
2017-10-23T22:29:15.520Z,98.50
2017-10-23T22:31:45.938Z,98.40
2017-10-23T22:34:16.337Z,98.40
2017-10-23T22:36:46.785Z,98.50
2017-10-23T22:39:17.234Z,98.70
2017-10-23T22:41:48.890Z,98.80
2017-10-23T22:44:19.371Z,98.80
2017-10-23T22:46:50.901Z,98.80
2017-10-23T22:49:22.092Z,98.80
2017-10-23T22:51:53.413Z,98.80
2017-10-23T22:54:24.608Z,98.90
2017-10-23T22:56:55.033Z,99.00
2017-10-23T22:59:26.112Z,98.90
2017-10-23T23:01:57.333Z,98.90
2017-10-23T23:04:27.761Z,98.80
2017-10-23T23:06:58.259Z,98.80
2017-10-23T23:09:28.758Z,98.90
2017-10-23T23:12:00.391Z,99.20
2017-10-23T23:14:30.857Z,98.90
2017-10-23T23:17:01.634Z,98.90
2017-10-23T23:19:32.934Z,99.00
2017-10-23T23:22:03.413Z,99.00
2017-10-23T23:24:34.048Z,98.90
2017-10-23T23:27:04.449Z,98.90
2017-10-23T23:29:36.218Z,99.00
2017-10-23T23:32:06.686Z,98.90
2017-10-23T23:34:37.898Z,98.80
2017-10-23T23:37:08.408Z,98.80
2017-10-23T23:39:38.791Z,98.90
2017-10-23T23:42:09.965Z,98.80
2017-10-23T23:44:40.390Z,98.80
2017-10-23T23:47:11.335Z,98.70
2017-10-23T23:49:41.777Z,98.70
2017-10-23T23:52:12.239Z,98.60
2017-10-23T23:54:43.426Z,98.60
2017-10-23T23:57:13.870Z,98.60
2017-10-23T23:59:44.709Z,98.50
